sensor_id;sensor_type;location;lat;lon;timestamp;P1;durP1;ratioP1;P2;durP2;ratioP2
64520;SDS011;50896;46.714;17.322;2022-10-14T00:01:06;26.13;;;17.83;;
64520;SDS011;50896;46.714;17.322;2022-10-14T00:03:38;30.73;;;19.38;;
64520;SDS011;50896;46.714;17.322;2022-10-14T00:06:06;38.83;;;23.05;;
64520;SDS011;50896;46.714;17.322;2022-10-14T00:08:43;34.90;;;22.90;;
64520;SDS011;50896;46.714;17.322;2022-10-14T00:11:14;40.13;;;25.65;;
64520;SDS011;50896;46.714;17.322;2022-10-14T00:13:43;51.58;;;29.08;;
64520;SDS011;50896;46.714;17.322;2022-10-14T00:16:18;47.33;;;26.60;;
64520;SDS011;50896;46.714;17.322;2022-10-14T00:18:47;44.30;;;26.48;;
64520;SDS011;50896;46.714;17.322;2022-10-14T00:21:15;49.75;;;29.55;;
64520;SDS011;50896;46.714;17.322;2022-10-14T00:23:42;48.60;;;28.75;;
64520;SDS011;50896;46.714;17.322;2022-10-14T00:26:16;43.67;;;27.60;;
64520;SDS011;50896;46.714;17.322;2022-10-14T00:28:45;42.55;;;26.52;;
64520;SDS011;50896;46.714;17.322;2022-10-14T00:31:13;44.42;;;25.77;;
64520;SDS011;50896;46.714;17.322;2022-10-14T00:33:41;42.63;;;25.27;;
64520;SDS011;50896;46.714;17.322;2022-10-14T00:36:10;39.00;;;24.55;;
64520;SDS011;50896;46.714;17.322;2022-10-14T00:38:39;37.30;;;24.02;;
64520;SDS011;50896;46.714;17.322;2022-10-14T00:41:06;36.95;;;23.27;;
64520;SDS011;50896;46.714;17.322;2022-10-14T00:46:33;31.90;;;20.45;;
64520;SDS011;50896;46.714;17.322;2022-10-14T00:49:26;35.10;;;21.42;;
64520;SDS011;50896;46.714;17.322;2022-10-14T00:51:55;32.08;;;20.65;;
64520;SDS011;50896;46.714;17.322;2022-10-14T00:54:28;28.60;;;18.88;;
64520;SDS011;50896;46.714;17.322;2022-10-14T00:56:57;34.22;;;22.30;;
64520;SDS011;50896;46.714;17.322;2022-10-14T00:59:24;32.67;;;21.75;;
64520;SDS011;50896;46.714;17.322;2022-10-14T01:01:51;32.05;;;20.30;;
64520;SDS011;50896;46.714;17.322;2022-10-14T01:04:17;32.97;;;21.73;;
64520;SDS011;50896;46.714;17.322;2022-10-14T01:06:47;32.70;;;19.67;;
64520;SDS011;50896;46.714;17.322;2022-10-14T01:09:37;29.05;;;20.02;;
64520;SDS011;50896;46.714;17.322;2022-10-14T01:12:17;30.52;;;19.73;;
64520;SDS011;50896;46.714;17.322;2022-10-14T01:15:04;31.80;;;18.90;;
64520;SDS011;50896;46.714;17.322;2022-10-14T01:23:15;35.85;;;20.80;;
64520;SDS011;50896;46.714;17.322;2022-10-14T01:31:26;34.97;;;20.05;;
64520;SDS011;50896;46.714;17.322;2022-10-14T01:33:58;30.35;;;19.55;;
64520;SDS011;50896;46.714;17.322;2022-10-14T01:41:33;35.67;;;22.90;;
64520;SDS011;50896;46.714;17.322;2022-10-14T01:44:07;33.17;;;21.77;;
64520;SDS011;50896;46.714;17.322;2022-10-14T01:46:38;35.03;;;20.95;;
64520;SDS011;50896;46.714;17.322;2022-10-14T01:49:11;33.95;;;21.40;;
64520;SDS011;50896;46.714;17.322;2022-10-14T01:51:51;33.67;;;20.63;;
64520;SDS011;50896;46.714;17.322;2022-10-14T01:54:26;34.85;;;21.23;;
64520;SDS011;50896;46.714;17.322;2022-10-14T01:56:58;40.10;;;21.08;;
64520;SDS011;50896;46.714;17.322;2022-10-14T01:59:29;36.20;;;20.13;;
64520;SDS011;50896;46.714;17.322;2022-10-14T02:01:58;35.70;;;20.77;;
64520;SDS011;50896;46.714;17.322;2022-10-14T02:04:24;35.78;;;21.95;;
64520;SDS011;50896;46.714;17.322;2022-10-14T02:15:11;38.10;;;21.80;;
64520;SDS011;50896;46.714;17.322;2022-10-14T02:20:28;31.80;;;19.98;;
64520;SDS011;50896;46.714;17.322;2022-10-14T02:23:03;37.05;;;22.70;;
64520;SDS011;50896;46.714;17.322;2022-10-14T02:25:37;37.15;;;21.92;;
64520;SDS011;50896;46.714;17.322;2022-10-14T02:28:07;36.15;;;22.20;;
64520;SDS011;50896;46.714;17.322;2022-10-14T02:30:39;32.60;;;21.83;;
64520;SDS011;50896;46.714;17.322;2022-10-14T02:33:09;36.40;;;22.25;;
64520;SDS011;50896;46.714;17.322;2022-10-14T02:35:37;36.28;;;23.27;;
64520;SDS011;50896;46.714;17.322;2022-10-14T02:38:06;37.43;;;21.63;;
64520;SDS011;50896;46.714;17.322;2022-10-14T02:40:36;42.30;;;22.77;;
64520;SDS011;50896;46.714;17.322;2022-10-14T02:43:07;36.08;;;22.42;;
64520;SDS011;50896;46.714;17.322;2022-10-14T02:45:36;37.33;;;22.20;;
64520;SDS011;50896;46.714;17.322;2022-10-14T02:48:04;36.42;;;23.27;;
64520;SDS011;50896;46.714;17.322;2022-10-14T02:50:31;41.45;;;23.05;;
64520;SDS011;50896;46.714;17.322;2022-10-14T02:52:58;33.20;;;20.55;;
64520;SDS011;50896;46.714;17.322;2022-10-14T02:55:25;32.35;;;20.08;;
64520;SDS011;50896;46.714;17.322;2022-10-14T02:57:53;31.50;;;20.52;;
64520;SDS011;50896;46.714;17.322;2022-10-14T03:00:20;36.92;;;21.52;;
64520;SDS011;50896;46.714;17.322;2022-10-14T03:02:47;29.65;;;20.13;;
64520;SDS011;50896;46.714;17.322;2022-10-14T03:05:16;34.78;;;21.15;;
64520;SDS011;50896;46.714;17.322;2022-10-14T03:07:43;31.10;;;19.70;;
64520;SDS011;50896;46.714;17.322;2022-10-14T03:10:12;31.80;;;19.73;;
64520;SDS011;50896;46.714;17.322;2022-10-14T03:12:39;30.15;;;20.42;;
64520;SDS011;50896;46.714;17.322;2022-10-14T03:15:12;40.92;;;21.35;;
64520;SDS011;50896;46.714;17.322;2022-10-14T03:17:39;35.25;;;21.67;;
64520;SDS011;50896;46.714;17.322;2022-10-14T03:20:06;31.25;;;20.25;;
64520;SDS011;50896;46.714;17.322;2022-10-14T03:22:41;30.55;;;20.85;;
64520;SDS011;50896;46.714;17.322;2022-10-14T03:25:08;26.00;;;18.48;;
64520;SDS011;50896;46.714;17.322;2022-10-14T03:27:50;32.78;;;19.55;;
64520;SDS011;50896;46.714;17.322;2022-10-14T03:30:20;28.08;;;19.50;;
64520;SDS011;50896;46.714;17.322;2022-10-14T03:32:56;32.42;;;20.70;;
64520;SDS011;50896;46.714;17.322;2022-10-14T03:35:55;28.42;;;19.08;;
64520;SDS011;50896;46.714;17.322;2022-10-14T03:38:35;28.48;;;18.85;;
64520;SDS011;50896;46.714;17.322;2022-10-14T03:41:02;30.55;;;19.40;;
64520;SDS011;50896;46.714;17.322;2022-10-14T03:43:29;27.52;;;19.20;;
64520;SDS011;50896;46.714;17.322;2022-10-14T03:45:57;35.00;;;20.15;;
64520;SDS011;50896;46.714;17.322;2022-10-14T03:48:24;30.95;;;19.98;;
64520;SDS011;50896;46.714;17.322;2022-10-14T03:50:54;32.45;;;19.08;;
64520;SDS011;50896;46.714;17.322;2022-10-14T03:53:22;27.40;;;17.98;;
64520;SDS011;50896;46.714;17.322;2022-10-14T03:55:49;34.00;;;20.10;;
64520;SDS011;50896;46.714;17.322;2022-10-14T03:58:16;30.50;;;19.40;;
64520;SDS011;50896;46.714;17.322;2022-10-14T04:00:50;31.60;;;19.35;;
64520;SDS011;50896;46.714;17.322;2022-10-14T04:03:30;36.17;;;19.80;;
64520;SDS011;50896;46.714;17.322;2022-10-14T04:05:58;31.33;;;19.65;;
64520;SDS011;50896;46.714;17.322;2022-10-14T04:08:27;32.45;;;19.48;;
64520;SDS011;50896;46.714;17.322;2022-10-14T04:10:57;29.15;;;18.30;;
64520;SDS011;50896;46.714;17.322;2022-10-14T04:13:28;35.67;;;20.63;;
64520;SDS011;50896;46.714;17.322;2022-10-14T04:15:55;30.92;;;19.77;;
64520;SDS011;50896;46.714;17.322;2022-10-14T04:18:27;36.15;;;19.55;;
64520;SDS011;50896;46.714;17.322;2022-10-14T04:21:00;27.80;;;18.00;;
64520;SDS011;50896;46.714;17.322;2022-10-14T04:23:29;28.85;;;18.45;;
64520;SDS011;50896;46.714;17.322;2022-10-14T04:26:04;29.30;;;18.15;;
64520;SDS011;50896;46.714;17.322;2022-10-14T04:28:32;32.60;;;18.00;;
64520;SDS011;50896;46.714;17.322;2022-10-14T04:31:09;37.67;;;19.88;;
64520;SDS011;50896;46.714;17.322;2022-10-14T04:33:48;30.17;;;19.75;;
64520;SDS011;50896;46.714;17.322;2022-10-14T04:36:22;32.25;;;19.35;;
64520;SDS011;50896;46.714;17.322;2022-10-14T04:38:48;32.70;;;19.52;;
64520;SDS011;50896;46.714;17.322;2022-10-14T04:41:15;36.65;;;21.05;;
64520;SDS011;50896;46.714;17.322;2022-10-14T04:43:46;33.33;;;20.83;;
64520;SDS011;50896;46.714;17.322;2022-10-14T04:46:26;33.83;;;19.75;;
64520;SDS011;50896;46.714;17.322;2022-10-14T04:48:53;34.47;;;20.65;;
64520;SDS011;50896;46.714;17.322;2022-10-14T04:51:24;30.83;;;20.67;;
64520;SDS011;50896;46.714;17.322;2022-10-14T04:54:26;35.95;;;19.58;;
64520;SDS011;50896;46.714;17.322;2022-10-14T04:56:56;38.35;;;19.80;;
64520;SDS011;50896;46.714;17.322;2022-10-14T04:59:23;30.45;;;19.15;;
64520;SDS011;50896;46.714;17.322;2022-10-14T05:01:55;32.33;;;18.63;;
64520;SDS011;50896;46.714;17.322;2022-10-14T05:04:31;28.38;;;18.30;;
64520;SDS011;50896;46.714;17.322;2022-10-14T05:06:59;31.35;;;18.40;;
64520;SDS011;50896;46.714;17.322;2022-10-14T05:09:26;31.10;;;19.00;;
64520;SDS011;50896;46.714;17.322;2022-10-14T05:11:53;27.13;;;18.20;;
64520;SDS011;50896;46.714;17.322;2022-10-14T05:14:28;30.08;;;19.38;;
64520;SDS011;50896;46.714;17.322;2022-10-14T05:17:06;31.65;;;18.90;;
64520;SDS011;50896;46.714;17.322;2022-10-14T05:19:33;31.77;;;18.92;;
64520;SDS011;50896;46.714;17.322;2022-10-14T05:22:00;29.73;;;17.38;;
64520;SDS011;50896;46.714;17.322;2022-10-14T05:24:33;29.23;;;17.40;;
64520;SDS011;50896;46.714;17.322;2022-10-14T05:27:00;30.98;;;18.50;;
64520;SDS011;50896;46.714;17.322;2022-10-14T05:29:29;28.05;;;17.95;;
64520;SDS011;50896;46.714;17.322;2022-10-14T05:31:56;29.55;;;17.83;;
64520;SDS011;50896;46.714;17.322;2022-10-14T05:34:43;30.85;;;18.50;;
64520;SDS011;50896;46.714;17.322;2022-10-14T05:37:17;30.98;;;18.80;;
64520;SDS011;50896;46.714;17.322;2022-10-14T05:39:48;30.42;;;19.65;;
64520;SDS011;50896;46.714;17.322;2022-10-14T05:42:17;29.02;;;18.88;;
64520;SDS011;50896;46.714;17.322;2022-10-14T05:44:45;31.98;;;19.13;;
64520;SDS011;50896;46.714;17.322;2022-10-14T05:47:20;32.70;;;19.40;;
64520;SDS011;50896;46.714;17.322;2022-10-14T05:49:55;31.00;;;20.00;;
64520;SDS011;50896;46.714;17.322;2022-10-14T05:52:25;36.85;;;21.65;;
64520;SDS011;50896;46.714;17.322;2022-10-14T05:54:52;34.67;;;20.85;;
64520;SDS011;50896;46.714;17.322;2022-10-14T05:57:23;37.63;;;22.30;;
64520;SDS011;50896;46.714;17.322;2022-10-14T05:59:49;37.10;;;22.13;;
64520;SDS011;50896;46.714;17.322;2022-10-14T06:02:16;32.63;;;20.92;;
64520;SDS011;50896;46.714;17.322;2022-10-14T06:04:43;34.63;;;20.48;;
64520;SDS011;50896;46.714;17.322;2022-10-14T06:07:10;33.90;;;21.15;;
64520;SDS011;50896;46.714;17.322;2022-10-14T06:09:37;38.00;;;22.08;;
64520;SDS011;50896;46.714;17.322;2022-10-14T06:12:05;36.58;;;22.25;;
64520;SDS011;50896;46.714;17.322;2022-10-14T06:14:32;38.47;;;22.08;;
64520;SDS011;50896;46.714;17.322;2022-10-14T06:16:59;36.65;;;22.42;;
64520;SDS011;50896;46.714;17.322;2022-10-14T06:19:26;38.60;;;23.23;;
64520;SDS011;50896;46.714;17.322;2022-10-14T06:21:53;37.47;;;22.63;;
64520;SDS011;50896;46.714;17.322;2022-10-14T06:24:20;37.35;;;23.88;;
64520;SDS011;50896;46.714;17.322;2022-10-14T06:26:46;33.83;;;21.90;;
64520;SDS011;50896;46.714;17.322;2022-10-14T06:29:14;39.20;;;23.48;;
64520;SDS011;50896;46.714;17.322;2022-10-14T06:31:41;38.22;;;24.00;;
64520;SDS011;50896;46.714;17.322;2022-10-14T06:34:08;42.13;;;25.55;;
64520;SDS011;50896;46.714;17.322;2022-10-14T06:36:35;34.85;;;23.48;;
64520;SDS011;50896;46.714;17.322;2022-10-14T06:39:02;37.45;;;25.20;;
64520;SDS011;50896;46.714;17.322;2022-10-14T06:41:30;51.83;;;29.25;;
64520;SDS011;50896;46.714;17.322;2022-10-14T06:43:58;55.85;;;30.58;;
64520;SDS011;50896;46.714;17.322;2022-10-14T06:46:24;61.30;;;32.17;;
64520;SDS011;50896;46.714;17.322;2022-10-14T06:48:51;55.13;;;32.80;;
64520;SDS011;50896;46.714;17.322;2022-10-14T06:51:18;54.28;;;29.95;;
64520;SDS011;50896;46.714;17.322;2022-10-14T06:53:44;47.97;;;28.75;;
64520;SDS011;50896;46.714;17.322;2022-10-14T06:56:11;53.47;;;30.52;;
64520;SDS011;50896;46.714;17.322;2022-10-14T06:58:38;49.92;;;30.00;;
64520;SDS011;50896;46.714;17.322;2022-10-14T07:01:05;50.53;;;29.83;;
64520;SDS011;50896;46.714;17.322;2022-10-14T07:03:34;47.80;;;28.10;;
64520;SDS011;50896;46.714;17.322;2022-10-14T07:06:05;47.85;;;28.40;;
64520;SDS011;50896;46.714;17.322;2022-10-14T07:08:32;42.40;;;25.98;;
64520;SDS011;50896;46.714;17.322;2022-10-14T07:10:59;41.25;;;25.90;;
64520;SDS011;50896;46.714;17.322;2022-10-14T07:13:26;44.75;;;25.75;;
64520;SDS011;50896;46.714;17.322;2022-10-14T07:15:53;39.70;;;24.63;;
64520;SDS011;50896;46.714;17.322;2022-10-14T07:18:20;41.45;;;25.33;;
64520;SDS011;50896;46.714;17.322;2022-10-14T07:20:47;43.30;;;25.95;;
64520;SDS011;50896;46.714;17.322;2022-10-14T07:23:14;40.95;;;25.60;;
64520;SDS011;50896;46.714;17.322;2022-10-14T07:25:40;43.80;;;26.65;;
64520;SDS011;50896;46.714;17.322;2022-10-14T07:28:07;40.33;;;24.88;;
64520;SDS011;50896;46.714;17.322;2022-10-14T07:30:34;40.42;;;24.92;;
64520;SDS011;50896;46.714;17.322;2022-10-14T07:33:01;38.83;;;23.25;;
64520;SDS011;50896;46.714;17.322;2022-10-14T07:35:28;39.10;;;24.75;;
64520;SDS011;50896;46.714;17.322;2022-10-14T07:37:56;42.10;;;25.13;;
64520;SDS011;50896;46.714;17.322;2022-10-14T07:40:24;34.47;;;22.40;;
64520;SDS011;50896;46.714;17.322;2022-10-14T07:42:51;37.92;;;24.63;;
64520;SDS011;50896;46.714;17.322;2022-10-14T07:45:18;33.08;;;22.63;;
64520;SDS011;50896;46.714;17.322;2022-10-14T07:47:47;39.42;;;23.25;;
64520;SDS011;50896;46.714;17.322;2022-10-14T07:50:16;37.33;;;24.15;;
64520;SDS011;50896;46.714;17.322;2022-10-14T07:52:43;40.70;;;24.48;;
64520;SDS011;50896;46.714;17.322;2022-10-14T07:55:10;39.28;;;24.40;;
64520;SDS011;50896;46.714;17.322;2022-10-14T07:57:37;38.45;;;23.23;;
64520;SDS011;50896;46.714;17.322;2022-10-14T08:00:03;38.35;;;24.08;;
64520;SDS011;50896;46.714;17.322;2022-10-14T08:02:37;43.65;;;25.38;;
64520;SDS011;50896;46.714;17.322;2022-10-14T08:05:03;45.72;;;25.90;;
64520;SDS011;50896;46.714;17.322;2022-10-14T08:07:50;41.65;;;25.10;;
64520;SDS011;50896;46.714;17.322;2022-10-14T08:10:17;44.28;;;27.98;;
64520;SDS011;50896;46.714;17.322;2022-10-14T08:12:44;42.80;;;26.15;;
64520;SDS011;50896;46.714;17.322;2022-10-14T08:15:11;44.85;;;26.55;;
64520;SDS011;50896;46.714;17.322;2022-10-14T08:17:38;38.90;;;24.45;;
64520;SDS011;50896;46.714;17.322;2022-10-14T08:20:05;48.63;;;27.25;;
64520;SDS011;50896;46.714;17.322;2022-10-14T08:22:32;42.72;;;26.05;;
64520;SDS011;50896;46.714;17.322;2022-10-14T08:24:58;45.88;;;24.65;;
64520;SDS011;50896;46.714;17.322;2022-10-14T08:27:25;33.80;;;22.42;;
64520;SDS011;50896;46.714;17.322;2022-10-14T08:29:53;32.60;;;21.52;;
64520;SDS011;50896;46.714;17.322;2022-10-14T08:32:19;33.90;;;21.83;;
64520;SDS011;50896;46.714;17.322;2022-10-14T08:34:47;36.55;;;20.52;;
64520;SDS011;50896;46.714;17.322;2022-10-14T08:37:13;35.75;;;20.77;;
64520;SDS011;50896;46.714;17.322;2022-10-14T08:39:40;31.33;;;20.85;;
64520;SDS011;50896;46.714;17.322;2022-10-14T08:45:00;31.52;;;20.27;;
64520;SDS011;50896;46.714;17.322;2022-10-14T08:47:41;30.83;;;19.77;;
64520;SDS011;50896;46.714;17.322;2022-10-14T08:53:01;29.05;;;18.77;;
64520;SDS011;50896;46.714;17.322;2022-10-14T08:55:36;28.15;;;18.85;;
64520;SDS011;50896;46.714;17.322;2022-10-14T08:58:05;31.08;;;19.98;;
64520;SDS011;50896;46.714;17.322;2022-10-14T09:00:40;30.17;;;20.60;;
64520;SDS011;50896;46.714;17.322;2022-10-14T09:05:41;33.20;;;19.20;;
64520;SDS011;50896;46.714;17.322;2022-10-14T09:08:09;33.75;;;19.75;;
64520;SDS011;50896;46.714;17.322;2022-10-14T09:10:41;35.15;;;20.13;;
64520;SDS011;50896;46.714;17.322;2022-10-14T09:13:23;31.45;;;19.45;;
64520;SDS011;50896;46.714;17.322;2022-10-14T09:16:04;32.35;;;19.45;;
64520;SDS011;50896;46.714;17.322;2022-10-14T09:18:43;33.47;;;19.40;;
64520;SDS011;50896;46.714;17.322;2022-10-14T09:21:33;27.90;;;19.42;;
64520;SDS011;50896;46.714;17.322;2022-10-14T09:24:23;30.50;;;20.33;;
64520;SDS011;50896;46.714;17.322;2022-10-14T09:26:54;35.40;;;20.63;;
64520;SDS011;50896;46.714;17.322;2022-10-14T09:29:41;34.78;;;20.50;;
64520;SDS011;50896;46.714;17.322;2022-10-14T09:32:12;33.80;;;20.53;;
64520;SDS011;50896;46.714;17.322;2022-10-14T09:34:52;31.08;;;20.48;;
64520;SDS011;50896;46.714;17.322;2022-10-14T09:37:23;35.83;;;20.77;;
64520;SDS011;50896;46.714;17.322;2022-10-14T09:39:58;35.95;;;21.02;;
64520;SDS011;50896;46.714;17.322;2022-10-14T09:42:47;28.92;;;19.25;;
64520;SDS011;50896;46.714;17.322;2022-10-14T09:45:20;33.78;;;20.98;;
64520;SDS011;50896;46.714;17.322;2022-10-14T09:47:54;31.83;;;20.58;;
64520;SDS011;50896;46.714;17.322;2022-10-14T09:50:26;33.13;;;19.98;;
64520;SDS011;50896;46.714;17.322;2022-10-14T09:52:59;31.77;;;19.98;;
64520;SDS011;50896;46.714;17.322;2022-10-14T09:55:36;30.00;;;20.25;;
64520;SDS011;50896;46.714;17.322;2022-10-14T09:58:12;32.03;;;20.08;;
64520;SDS011;50896;46.714;17.322;2022-10-14T10:00:43;26.38;;;18.33;;
64520;SDS011;50896;46.714;17.322;2022-10-14T10:03:25;25.35;;;17.50;;
64520;SDS011;50896;46.714;17.322;2022-10-14T10:05:58;26.70;;;18.88;;
64520;SDS011;50896;46.714;17.322;2022-10-14T10:08:27;29.83;;;18.70;;
64520;SDS011;50896;46.714;17.322;2022-10-14T10:10:57;26.27;;;18.58;;
64520;SDS011;50896;46.714;17.322;2022-10-14T10:13:33;25.70;;;17.65;;
64520;SDS011;50896;46.714;17.322;2022-10-14T10:16:05;28.63;;;15.75;;
64520;SDS011;50896;46.714;17.322;2022-10-14T10:18:43;22.92;;;15.50;;
64520;SDS011;50896;46.714;17.322;2022-10-14T10:21:17;25.65;;;16.73;;
64520;SDS011;50896;46.714;17.322;2022-10-14T10:23:51;27.02;;;15.30;;
64520;SDS011;50896;46.714;17.322;2022-10-14T10:26:29;27.25;;;16.58;;
64520;SDS011;50896;46.714;17.322;2022-10-14T10:28:59;25.52;;;16.70;;
64520;SDS011;50896;46.714;17.322;2022-10-14T10:35:02;24.50;;;15.35;;
64520;SDS011;50896;46.714;17.322;2022-10-14T10:37:25;29.05;;;15.88;;
64520;SDS011;50896;46.714;17.322;2022-10-14T10:48:11;23.48;;;14.05;;
64520;SDS011;50896;46.714;17.322;2022-10-14T10:50:47;22.13;;;15.52;;
64520;SDS011;50896;46.714;17.322;2022-10-14T10:53:44;21.85;;;13.35;;
64520;SDS011;50896;46.714;17.322;2022-10-14T11:09:53;26.42;;;14.18;;
64520;SDS011;50896;46.714;17.322;2022-10-14T11:15:23;23.83;;;12.30;;
64520;SDS011;50896;46.714;17.322;2022-10-14T11:17:59;17.80;;;11.35;;
64520;SDS011;50896;46.714;17.322;2022-10-14T11:20:43;21.55;;;12.20;;
64520;SDS011;50896;46.714;17.322;2022-10-14T11:23:35;15.60;;;11.20;;
64520;SDS011;50896;46.714;17.322;2022-10-14T11:32:31;16.73;;;11.40;;
64520;SDS011;50896;46.714;17.322;2022-10-14T11:35:27;16.48;;;10.45;;
64520;SDS011;50896;46.714;17.322;2022-10-14T11:46:10;17.65;;;11.30;;
64520;SDS011;50896;46.714;17.322;2022-10-14T11:51:30;16.05;;;11.90;;
64520;SDS011;50896;46.714;17.322;2022-10-14T11:56:32;20.83;;;11.88;;
64520;SDS011;50896;46.714;17.322;2022-10-14T11:59:01;17.08;;;12.27;;
64520;SDS011;50896;46.714;17.322;2022-10-14T12:01:34;18.13;;;12.55;;
64520;SDS011;50896;46.714;17.322;2022-10-14T12:04:11;17.77;;;13.68;;
64520;SDS011;50896;46.714;17.322;2022-10-14T12:09:19;19.08;;;13.90;;
64520;SDS011;50896;46.714;17.322;2022-10-14T12:11:58;21.17;;;14.23;;
64520;SDS011;50896;46.714;17.322;2022-10-14T12:14:42;18.08;;;13.82;;
64520;SDS011;50896;46.714;17.322;2022-10-14T12:17:19;18.80;;;12.75;;
64520;SDS011;50896;46.714;17.322;2022-10-14T12:19:52;19.55;;;12.80;;
64520;SDS011;50896;46.714;17.322;2022-10-14T12:22:21;20.55;;;13.05;;
64520;SDS011;50896;46.714;17.322;2022-10-14T12:27:39;24.50;;;13.55;;
64520;SDS011;50896;46.714;17.322;2022-10-14T12:30:27;19.52;;;12.57;;
64520;SDS011;50896;46.714;17.322;2022-10-14T12:33:01;17.40;;;12.32;;
64520;SDS011;50896;46.714;17.322;2022-10-14T12:35:44;17.88;;;12.88;;
64520;SDS011;50896;46.714;17.322;2022-10-14T12:38:17;17.75;;;12.60;;
64520;SDS011;50896;46.714;17.322;2022-10-14T12:40:45;18.75;;;12.88;;
64520;SDS011;50896;46.714;17.322;2022-10-14T12:43:25;21.38;;;13.23;;
64520;SDS011;50896;46.714;17.322;2022-10-14T12:46:11;22.25;;;12.95;;
64520;SDS011;50896;46.714;17.322;2022-10-14T12:48:47;17.27;;;13.25;;
64520;SDS011;50896;46.714;17.322;2022-10-14T12:51:18;19.60;;;14.18;;
64520;SDS011;50896;46.714;17.322;2022-10-14T12:54:04;20.08;;;13.43;;
64520;SDS011;50896;46.714;17.322;2022-10-14T12:56:42;18.58;;;12.93;;
64520;SDS011;50896;46.714;17.322;2022-10-14T12:59:30;23.02;;;14.57;;
64520;SDS011;50896;46.714;17.322;2022-10-14T13:04:53;17.90;;;13.07;;
64520;SDS011;50896;46.714;17.322;2022-10-14T13:07:28;18.42;;;13.55;;
64520;SDS011;50896;46.714;17.322;2022-10-14T13:10:25;20.52;;;14.50;;
64520;SDS011;50896;46.714;17.322;2022-10-14T13:16:04;20.27;;;14.27;;
64520;SDS011;50896;46.714;17.322;2022-10-14T13:21:09;20.65;;;14.55;;
64520;SDS011;50896;46.714;17.322;2022-10-14T13:23:48;25.05;;;15.65;;
64520;SDS011;50896;46.714;17.322;2022-10-14T13:31:57;19.58;;;14.20;;
64520;SDS011;50896;46.714;17.322;2022-10-14T13:34:48;18.08;;;12.50;;
64520;SDS011;50896;46.714;17.322;2022-10-14T13:40:21;20.70;;;11.95;;
64520;SDS011;50896;46.714;17.322;2022-10-14T13:43:01;18.85;;;12.48;;
64520;SDS011;50896;46.714;17.322;2022-10-14T13:45:34;18.02;;;11.68;;
64520;SDS011;50896;46.714;17.322;2022-10-14T13:48:15;16.48;;;11.32;;
64520;SDS011;50896;46.714;17.322;2022-10-14T13:50:45;20.42;;;12.80;;
64520;SDS011;50896;46.714;17.322;2022-10-14T13:53:16;20.38;;;11.93;;
64520;SDS011;50896;46.714;17.322;2022-10-14T13:55:47;16.08;;;11.02;;
64520;SDS011;50896;46.714;17.322;2022-10-14T13:58:21;15.95;;;12.55;;
64520;SDS011;50896;46.714;17.322;2022-10-14T14:05:55;21.70;;;12.43;;
64520;SDS011;50896;46.714;17.322;2022-10-14T14:08:27;16.65;;;12.30;;
64520;SDS011;50896;46.714;17.322;2022-10-14T14:11:08;17.65;;;12.32;;
64520;SDS011;50896;46.714;17.322;2022-10-14T14:24:46;16.25;;;12.38;;
64520;SDS011;50896;46.714;17.322;2022-10-14T14:27:20;20.25;;;13.57;;
64520;SDS011;50896;46.714;17.322;2022-10-14T14:29:49;17.52;;;12.70;;
64520;SDS011;50896;46.714;17.322;2022-10-14T14:32:19;16.50;;;13.07;;
64520;SDS011;50896;46.714;17.322;2022-10-14T14:34:49;20.90;;;13.40;;
64520;SDS011;50896;46.714;17.322;2022-10-14T14:37:22;19.55;;;13.00;;
64520;SDS011;50896;46.714;17.322;2022-10-14T14:40:16;18.63;;;13.57;;
64520;SDS011;50896;46.714;17.322;2022-10-14T14:42:44;20.20;;;12.70;;
64520;SDS011;50896;46.714;17.322;2022-10-14T14:45:15;15.32;;;12.07;;
64520;SDS011;50896;46.714;17.322;2022-10-14T14:47:48;16.77;;;12.70;;
64520;SDS011;50896;46.714;17.322;2022-10-14T14:53:17;16.85;;;12.40;;
64520;SDS011;50896;46.714;17.322;2022-10-14T14:55:57;16.73;;;13.03;;
64520;SDS011;50896;46.714;17.322;2022-10-14T14:58:46;17.00;;;12.80;;
64520;SDS011;50896;46.714;17.322;2022-10-14T15:01:23;16.13;;;12.13;;
64520;SDS011;50896;46.714;17.322;2022-10-14T15:04:03;17.13;;;12.65;;
64520;SDS011;50896;46.714;17.322;2022-10-14T15:06:40;18.75;;;12.85;;
64520;SDS011;50896;46.714;17.322;2022-10-14T15:09:21;15.95;;;11.60;;
64520;SDS011;50896;46.714;17.322;2022-10-14T15:11:55;18.92;;;12.52;;
64520;SDS011;50896;46.714;17.322;2022-10-14T15:14:41;16.15;;;11.60;;
64520;SDS011;50896;46.714;17.322;2022-10-14T15:17:22;18.88;;;12.82;;
64520;SDS011;50896;46.714;17.322;2022-10-14T15:19:48;20.40;;;14.27;;
64520;SDS011;50896;46.714;17.322;2022-10-14T15:25:01;29.20;;;20.77;;
64520;SDS011;50896;46.714;17.322;2022-10-14T15:32:48;18.65;;;13.30;;
64520;SDS011;50896;46.714;17.322;2022-10-14T15:35:17;18.95;;;13.77;;
64520;SDS011;50896;46.714;17.322;2022-10-14T15:40:15;20.25;;;14.23;;
64520;SDS011;50896;46.714;17.322;2022-10-14T15:42:46;19.15;;;14.65;;
64520;SDS011;50896;46.714;17.322;2022-10-14T15:45:14;20.85;;;14.38;;
64520;SDS011;50896;46.714;17.322;2022-10-14T15:47:41;17.50;;;13.73;;
64520;SDS011;50896;46.714;17.322;2022-10-14T15:50:14;20.50;;;14.10;;
64520;SDS011;50896;46.714;17.322;2022-10-14T15:52:50;20.33;;;15.50;;
64520;SDS011;50896;46.714;17.322;2022-10-14T15:55:23;29.17;;;18.93;;
64520;SDS011;50896;46.714;17.322;2022-10-14T15:57:52;20.63;;;16.95;;
64520;SDS011;50896;46.714;17.322;2022-10-14T16:00:19;26.05;;;16.60;;
64520;SDS011;50896;46.714;17.322;2022-10-14T16:02:49;22.90;;;16.77;;
64520;SDS011;50896;46.714;17.322;2022-10-14T16:05:20;32.08;;;18.48;;
64520;SDS011;50896;46.714;17.322;2022-10-14T16:07:47;26.25;;;17.08;;
64520;SDS011;50896;46.714;17.322;2022-10-14T16:10:16;27.70;;;16.92;;
64520;SDS011;50896;46.714;17.322;2022-10-14T16:12:44;29.80;;;18.65;;
64520;SDS011;50896;46.714;17.322;2022-10-14T16:17:53;33.85;;;21.75;;
64520;SDS011;50896;46.714;17.322;2022-10-14T16:20:20;46.58;;;28.98;;
64520;SDS011;50896;46.714;17.322;2022-10-14T16:22:47;34.83;;;22.60;;
64520;SDS011;50896;46.714;17.322;2022-10-14T16:28:20;34.35;;;24.17;;
64520;SDS011;50896;46.714;17.322;2022-10-14T16:30:47;43.55;;;29.58;;
64520;SDS011;50896;46.714;17.322;2022-10-14T16:33:16;32.72;;;21.50;;
64520;SDS011;50896;46.714;17.322;2022-10-14T16:35:45;34.00;;;22.52;;
64520;SDS011;50896;46.714;17.322;2022-10-14T16:38:16;28.38;;;20.77;;
64520;SDS011;50896;46.714;17.322;2022-10-14T16:40:43;28.65;;;20.25;;
64520;SDS011;50896;46.714;17.322;2022-10-14T16:43:11;31.55;;;19.30;;
64520;SDS011;50896;46.714;17.322;2022-10-14T16:45:38;31.13;;;18.73;;
64520;SDS011;50896;46.714;17.322;2022-10-14T16:48:06;30.40;;;20.05;;
64520;SDS011;50896;46.714;17.322;2022-10-14T16:50:32;30.92;;;21.05;;
64520;SDS011;50896;46.714;17.322;2022-10-14T16:52:59;31.15;;;21.35;;
64520;SDS011;50896;46.714;17.322;2022-10-14T16:55:44;51.65;;;32.22;;
64520;SDS011;50896;46.714;17.322;2022-10-14T16:58:11;33.13;;;22.05;;
64520;SDS011;50896;46.714;17.322;2022-10-14T17:00:38;36.50;;;19.98;;